createdAt,value
2019-03-13T00:02:56.225Z,51.15
2019-03-13T00:14:49.698Z,52.56
2019-03-13T00:17:37.284Z,52.38
2019-03-13T00:26:11.281Z,53.07
2019-03-13T00:28:58.810Z,53.06
2019-03-13T00:31:47.639Z,52.78
2019-03-13T00:34:35.229Z,52.81
2019-03-13T00:42:47.022Z,52.62
2019-03-13T00:45:34.531Z,52.90
2019-03-13T00:55:03.367Z,55.66
2019-03-13T00:57:49.923Z,57.14
2019-03-13T01:06:54.680Z,58.16
2019-03-13T01:09:44.562Z,58.94
2019-03-13T01:12:41.069Z,58.80
2019-03-13T01:42:40.932Z,62.04
2019-03-13T01:54:22.864Z,61.59
2019-03-13T01:59:44.960Z,61.72
2019-03-13T02:05:10.255Z,60.95
2019-03-13T02:07:57.080Z,62.94
2019-03-13T02:10:44.077Z,63.79
2019-03-13T02:19:21.586Z,64.79
2019-03-13T02:22:16.909Z,64.69
2019-03-13T02:40:00.898Z,64.86
2019-03-13T02:54:59.636Z,66.44
2019-03-13T03:10:12.461Z,67.36
2019-03-13T03:13:00.285Z,66.98
2019-03-13T03:22:05.133Z,67.30
2019-03-13T03:25:01.074Z,67.50
2019-03-13T03:30:57.407Z,68.59
2019-03-13T03:42:27.228Z,68.51
2019-03-13T03:50:59.166Z,69.50
2019-03-13T04:02:37.073Z,69.62
2019-03-13T04:22:45.669Z,68.36
2019-03-13T04:25:36.158Z,68.31
2019-03-13T04:28:23.794Z,68.34
2019-03-13T04:37:38.990Z,68.38
2019-03-13T04:57:42.190Z,70.01
2019-03-13T05:12:19.255Z,70.87
2019-03-13T05:15:06.005Z,70.80
2019-03-13T05:18:07.076Z,71.08
2019-03-13T05:20:54.396Z,70.99
2019-03-13T05:23:47.632Z,70.79
2019-03-13T05:26:35.541Z,70.84
2019-03-13T05:32:26.945Z,68.83
2019-03-13T05:35:21.207Z,70.42
2019-03-13T05:41:20.500Z,70.86
2019-03-13T05:50:31.417Z,68.75
2019-03-13T05:55:53.570Z,70.58
2019-03-13T05:58:48.871Z,70.85
2019-03-13T06:11:00.736Z,70.91
2019-03-13T06:19:48.535Z,70.53
2019-03-13T06:22:36.113Z,70.01
2019-03-13T06:46:22.695Z,67.55
2019-03-13T06:49:22.142Z,67.02
2019-03-13T06:57:57.509Z,64.43
2019-03-13T07:03:37.368Z,63.73
2019-03-13T07:06:23.815Z,63.36
2019-03-13T07:09:12.020Z,63.80
2019-03-13T07:11:58.840Z,63.79
2019-03-13T07:29:26.490Z,62.14
2019-03-13T07:32:13.329Z,61.75
2019-03-13T07:34:59.885Z,61.94
2019-03-13T07:59:33.990Z,59.30
2019-03-13T08:05:32.532Z,58.00
2019-03-13T08:08:25.342Z,57.59
2019-03-13T08:11:18.462Z,56.82
2019-03-13T08:14:08.138Z,56.74
2019-03-13T08:16:55.171Z,56.32
2019-03-13T08:19:47.928Z,52.81
2019-03-13T08:22:34.823Z,50.30
2019-03-13T08:42:56.597Z,54.98
2019-03-13T08:50:07.336Z,54.07
2019-03-13T08:53:00.127Z,52.58
2019-03-13T08:55:47.329Z,53.37
2019-03-13T08:58:39.957Z,52.57
2019-03-13T09:01:58.785Z,47.84
2019-03-13T09:08:55.392Z,52.70
2019-03-13T09:12:26.940Z,52.34
2019-03-13T09:15:22.757Z,51.56
2019-03-13T09:18:29.494Z,51.92
2019-03-13T09:21:19.326Z,52.43
2019-03-13T09:24:15.129Z,51.88
2019-03-13T09:27:13.745Z,48.83
2019-03-13T09:30:00.548Z,47.83
2019-03-13T09:33:00.178Z,49.83
2019-03-13T09:35:50.170Z,51.97
2019-03-13T09:38:55.185Z,52.38
2019-03-13T09:41:42.093Z,52.38
2019-03-13T09:44:31.795Z,52.25
2019-03-13T09:47:36.480Z,53.12
2019-03-13T09:54:36.011Z,51.41
2019-03-13T09:57:25.643Z,52.64
2019-03-13T10:00:44.259Z,48.39
2019-03-13T10:03:29.759Z,50.14
2019-03-13T10:06:22.806Z,50.88
2019-03-13T10:09:18.391Z,52.03
2019-03-13T10:12:20.180Z,52.12
2019-03-13T10:15:12.947Z,52.80
2019-03-13T10:21:23.676Z,51.32
2019-03-13T10:24:10.328Z,50.90
2019-03-13T10:27:09.287Z,51.48
2019-03-13T10:29:56.157Z,46.97
2019-03-13T10:32:56.137Z,49.44
2019-03-13T10:35:48.942Z,49.88
2019-03-13T10:38:53.992Z,49.91
2019-03-13T10:41:42.497Z,50.58
2019-03-13T10:44:38.210Z,49.95
2019-03-13T10:55:07.500Z,50.14
2019-03-13T10:57:57.423Z,49.92
2019-03-13T11:00:44.165Z,49.59
2019-03-13T11:03:48.675Z,49.43
2019-03-13T11:06:55.195Z,49.37
2019-03-13T11:13:20.825Z,49.65
2019-03-13T11:57:43.301Z,49.10
2019-03-13T12:00:53.536Z,49.35
2019-03-13T12:07:04.013Z,48.65
2019-03-13T12:09:53.806Z,47.96
2019-03-13T12:12:46.667Z,47.71
2019-03-13T12:15:33.672Z,47.96
2019-03-13T12:18:21.494Z,48.29
2019-03-13T12:21:25.993Z,48.70
2019-03-13T12:24:18.729Z,47.72
2019-03-13T12:27:26.738Z,47.38
2019-03-13T12:30:16.528Z,47.11
2019-03-13T12:33:12.523Z,46.17
2019-03-13T12:36:34.013Z,45.56
2019-03-13T12:42:11.432Z,48.06
2019-03-13T12:45:07.405Z,48.74
2019-03-13T12:47:54.718Z,43.38
2019-03-13T12:50:47.880Z,46.23
2019-03-13T12:53:42.211Z,47.55
2019-03-13T12:56:30.269Z,48.21
2019-03-13T12:59:19.203Z,48.43
2019-03-13T13:02:29.237Z,49.36
2019-03-13T13:05:33.959Z,49.27
2019-03-13T13:08:23.531Z,50.01
2019-03-13T13:11:18.730Z,50.01
2019-03-13T13:14:20.431Z,49.93
2019-03-13T13:17:08.132Z,49.93
2019-03-13T13:20:02.817Z,50.31
2019-03-13T13:22:49.819Z,50.98
2019-03-13T13:25:37.233Z,51.07
2019-03-13T13:28:39.076Z,50.96
2019-03-13T13:31:25.634Z,51.06
2019-03-13T13:34:12.590Z,51.23
2019-03-13T13:40:05.547Z,51.40
2019-03-13T13:42:53.229Z,51.32
2019-03-13T13:45:39.742Z,51.41
2019-03-13T13:48:26.844Z,51.32
2019-03-13T13:51:14.707Z,51.31
2019-03-13T13:54:01.284Z,51.77
2019-03-13T13:57:41.162Z,51.25
2019-03-13T14:00:28.148Z,51.41
2019-03-13T14:03:32.555Z,51.17
2019-03-13T14:06:19.186Z,51.34
2019-03-13T14:09:07.374Z,48.72
2019-03-13T14:16:31.339Z,50.42
2019-03-13T14:30:32.949Z,51.30
2019-03-13T14:44:09.288Z,51.12
2019-03-13T14:54:42.045Z,52.02
2019-03-13T14:57:28.779Z,51.92
2019-03-13T15:00:24.562Z,51.73
2019-03-13T15:03:11.629Z,51.88
2019-03-13T15:05:58.370Z,51.54
2019-03-13T15:08:46.766Z,51.69
2019-03-13T15:11:33.773Z,51.59
2019-03-13T15:14:35.203Z,51.33
2019-03-13T15:17:22.120Z,51.68
2019-03-13T15:20:26.438Z,52.01
2019-03-13T15:23:13.154Z,48.67
2019-03-13T15:26:00.354Z,50.58
2019-03-13T15:28:47.486Z,51.20
2019-03-13T15:31:34.278Z,52.01
2019-03-13T15:34:28.662Z,52.06
2019-03-13T15:37:15.377Z,49.42
2019-03-13T15:40:02.479Z,51.51
2019-03-13T15:42:51.969Z,52.14
2019-03-13T15:45:38.855Z,52.41
2019-03-13T15:59:15.823Z,53.24
2019-03-13T16:02:02.729Z,53.33
2019-03-13T16:05:09.188Z,50.84
2019-03-13T16:07:56.182Z,52.55
2019-03-13T16:14:01.645Z,53.34
2019-03-13T16:16:48.562Z,53.66
2019-03-13T16:19:35.454Z,53.80
2019-03-13T16:26:02.383Z,53.98
2019-03-13T16:28:49.209Z,54.17
2019-03-13T16:31:36.321Z,54.17
2019-03-13T16:34:23.243Z,54.32
2019-03-13T16:37:10.052Z,54.59
2019-03-13T16:43:18.829Z,52.27
2019-03-13T16:46:05.657Z,53.93
2019-03-13T16:48:52.477Z,54.23
2019-03-13T16:51:45.425Z,54.50
2019-03-13T16:54:32.204Z,55.28
2019-03-13T16:57:18.741Z,55.78
2019-03-13T17:07:07.317Z,58.03
2019-03-13T17:12:30.338Z,57.65
2019-03-13T17:15:16.824Z,57.88
2019-03-13T17:30:43.530Z,57.86
2019-03-13T17:33:30.853Z,57.89
2019-03-13T17:36:17.422Z,57.86
2019-03-13T17:39:04.243Z,58.27
2019-03-13T17:44:57.149Z,58.40
2019-03-13T17:47:43.798Z,58.48
2019-03-13T17:50:31.383Z,58.43
2019-03-13T17:53:17.985Z,56.86
2019-03-13T17:56:04.866Z,58.26
2019-03-13T17:58:58.787Z,58.53
2019-03-13T18:01:53.392Z,58.86
2019-03-13T18:04:40.646Z,56.86
2019-03-13T18:07:30.081Z,56.06
2019-03-13T18:10:17.791Z,55.63
2019-03-13T18:13:07.236Z,57.59
2019-03-13T18:15:54.207Z,58.21
2019-03-13T18:18:41.211Z,56.39
2019-03-13T18:21:28.019Z,58.10
2019-03-13T18:24:15.125Z,59.06
2019-03-13T18:27:02.287Z,56.94
2019-03-13T18:29:49.248Z,58.72
2019-03-13T18:32:42.114Z,57.00
2019-03-13T18:35:24.942Z,59.10
2019-03-13T18:38:11.547Z,60.60
2019-03-13T18:40:58.829Z,58.64
2019-03-13T18:43:45.364Z,60.97
2019-03-13T18:46:32.377Z,61.53
2019-03-13T18:49:20.822Z,59.85
2019-03-13T18:52:05.496Z,62.28
2019-03-13T18:54:52.080Z,63.95
2019-03-13T18:57:38.784Z,61.91
2019-03-13T19:00:25.786Z,64.21
2019-03-13T19:03:12.756Z,65.17
2019-03-13T19:06:02.678Z,65.68
2019-03-13T19:08:49.260Z,65.55
2019-03-13T19:11:36.046Z,65.99
2019-03-13T19:14:23.024Z,66.45
2019-03-13T19:20:15.484Z,67.11
2019-03-13T19:23:02.831Z,67.09
2019-03-13T19:25:50.001Z,67.40
2019-03-13T19:28:37.037Z,67.17
2019-03-13T19:31:23.394Z,67.22
2019-03-13T19:34:10.698Z,67.24
2019-03-13T19:37:05.225Z,67.06
2019-03-13T19:39:52.111Z,67.33
2019-03-13T19:42:39.002Z,67.15
2019-03-13T19:45:31.269Z,67.21
2019-03-13T19:48:20.164Z,68.62
2019-03-13T19:51:06.670Z,67.79
2019-03-13T19:53:53.294Z,68.23
2019-03-13T19:56:41.044Z,69.87
2019-03-13T19:59:31.229Z,69.56
2019-03-13T20:02:16.532Z,69.22
2019-03-13T20:05:03.615Z,69.67
2019-03-13T20:07:50.680Z,70.41
2019-03-13T20:10:37.353Z,69.40
2019-03-13T20:13:23.923Z,67.60
2019-03-13T20:16:10.531Z,69.60
2019-03-13T20:18:57.620Z,70.15
2019-03-13T20:21:47.423Z,69.87
2019-03-13T20:24:35.070Z,69.90
2019-03-13T20:27:21.627Z,70.28
2019-03-13T20:30:11.376Z,70.16
2019-03-13T20:32:58.008Z,70.16
2019-03-13T20:35:44.463Z,70.59
2019-03-13T20:38:33.719Z,70.21
2019-03-13T20:41:20.391Z,70.32
2019-03-13T20:44:07.628Z,70.50
2019-03-13T20:46:54.637Z,68.16
2019-03-13T20:49:41.501Z,69.63
2019-03-13T20:55:34.937Z,70.85
2019-03-13T20:58:21.834Z,70.45
2019-03-13T21:01:08.682Z,70.48
2019-03-13T21:04:09.713Z,70.87
2019-03-13T21:06:56.529Z,70.89
2019-03-13T21:12:49.205Z,70.93
2019-03-13T21:15:35.853Z,68.76
2019-03-13T21:18:22.680Z,70.16
2019-03-13T21:21:09.762Z,71.24
2019-03-13T21:23:56.818Z,71.14
2019-03-13T21:26:43.434Z,71.98
2019-03-13T21:32:35.624Z,71.96
2019-03-13T21:35:22.344Z,72.17
2019-03-13T21:38:17.443Z,72.17
2019-03-13T21:41:04.381Z,72.10
2019-03-13T21:43:51.365Z,72.15
2019-03-13T21:46:38.273Z,72.08
2019-03-13T21:49:24.875Z,72.26
2019-03-13T21:52:11.791Z,72.22
2019-03-13T21:54:58.299Z,72.24
2019-03-13T21:57:44.941Z,72.17
2019-03-13T22:00:31.554Z,71.96
2019-03-13T22:06:28.934Z,72.13
2019-03-13T22:09:11.553Z,72.24
2019-03-13T22:11:58.478Z,72.43
2019-03-13T22:14:44.991Z,70.23
2019-03-13T22:17:31.982Z,71.22
2019-03-13T22:20:19.750Z,71.64
2019-03-13T22:23:06.228Z,72.04
2019-03-13T22:25:52.744Z,71.72
2019-03-13T22:28:40.972Z,71.77
2019-03-13T22:31:29.326Z,71.48
2019-03-13T22:34:16.087Z,71.36
2019-03-13T22:37:02.940Z,71.40
2019-03-13T22:39:49.849Z,71.69
2019-03-13T22:42:36.848Z,71.49
2019-03-13T22:45:23.634Z,72.14
2019-03-13T22:48:11.019Z,72.03
2019-03-13T22:50:58.239Z,72.08
2019-03-13T22:53:45.723Z,71.98
2019-03-13T22:56:33.383Z,72.11
2019-03-13T22:59:20.189Z,72.40
2019-03-13T23:02:09.142Z,72.18
2019-03-13T23:04:55.741Z,72.30
2019-03-13T23:07:42.956Z,72.36
2019-03-13T23:10:30.480Z,71.99
2019-03-13T23:13:17.826Z,72.05
2019-03-13T23:16:04.225Z,72.00
2019-03-13T23:18:53.571Z,71.80
2019-03-13T23:21:40.072Z,71.73
2019-03-13T23:24:34.386Z,71.66
2019-03-13T23:27:21.228Z,69.50
2019-03-13T23:30:07.749Z,71.20
2019-03-13T23:32:54.681Z,71.81
2019-03-13T23:35:41.571Z,71.93
2019-03-13T23:38:28.849Z,72.09
2019-03-13T23:41:15.755Z,72.19
2019-03-13T23:44:02.228Z,72.19
2019-03-13T23:47:02.988Z,72.49
2019-03-13T23:49:49.996Z,72.38
2019-03-13T23:52:41.741Z,70.14
2019-03-13T23:55:36.000Z,71.63
2019-03-13T23:58:29.898Z,72.06
